sensor_id;sensor_type;location;lat;lon;timestamp;P1;durP1;ratioP1;P2;durP2;ratioP2
42146;SDS011;27815;43.410;11.852;2022-09-20T00:03:44;3.33;;;1.27;;
42146;SDS011;27815;43.410;11.852;2022-09-20T00:07:48;2.92;;;1.23;;
42146;SDS011;27815;43.410;11.852;2022-09-20T00:11:51;2.38;;;1.10;;
42146;SDS011;27815;43.410;11.852;2022-09-20T00:15:54;2.10;;;0.95;;
42146;SDS011;27815;43.410;11.852;2022-09-20T00:19:57;4.90;;;1.33;;
42146;SDS011;27815;43.410;11.852;2022-09-20T00:24:00;2.78;;;1.13;;
42146;SDS011;27815;43.410;11.852;2022-09-20T00:28:04;2.45;;;1.30;;
42146;SDS011;27815;43.410;11.852;2022-09-20T00:32:07;3.10;;;1.13;;
42146;SDS011;27815;43.410;11.852;2022-09-20T00:36:10;2.30;;;1.40;;
42146;SDS011;27815;43.410;11.852;2022-09-20T00:40:16;3.92;;;1.20;;
42146;SDS011;27815;43.410;11.852;2022-09-20T00:49:17;2.13;;;1.05;;
42146;SDS011;27815;43.410;11.852;2022-09-20T00:53:25;2.35;;;1.15;;
42146;SDS011;27815;43.410;11.852;2022-09-20T00:57:42;3.22;;;1.10;;
42146;SDS011;27815;43.410;11.852;2022-09-20T01:01:48;2.85;;;1.10;;
42146;SDS011;27815;43.410;11.852;2022-09-20T01:05:58;1.52;;;0.95;;
42146;SDS011;27815;43.410;11.852;2022-09-20T01:10:05;3.13;;;0.90;;
42146;SDS011;27815;43.410;11.852;2022-09-20T01:14:08;2.00;;;0.88;;
42146;SDS011;27815;43.410;11.852;2022-09-20T01:18:17;1.88;;;1.00;;
42146;SDS011;27815;43.410;11.852;2022-09-20T01:22:28;1.43;;;0.80;;
42146;SDS011;27815;43.410;11.852;2022-09-20T01:35:31;3.45;;;1.30;;
42146;SDS011;27815;43.410;11.852;2022-09-20T01:43:51;3.35;;;1.27;;
42146;SDS011;27815;43.410;11.852;2022-09-20T01:48:38;3.22;;;1.10;;
42146;SDS011;27815;43.410;11.852;2022-09-20T02:06:07;2.92;;;1.27;;
42146;SDS011;27815;43.410;11.852;2022-09-20T02:32:09;2.72;;;1.10;;
42146;SDS011;27815;43.410;11.852;2022-09-20T02:36:22;2.25;;;1.00;;
42146;SDS011;27815;43.410;11.852;2022-09-20T03:45:53;1.67;;;0.75;;
42146;SDS011;27815;43.410;11.852;2022-09-20T04:03:33;4.57;;;2.03;;
42146;SDS011;27815;43.410;11.852;2022-09-20T04:17:05;2.92;;;1.00;;
42146;SDS011;27815;43.410;11.852;2022-09-20T04:25:38;2.45;;;1.17;;
42146;SDS011;27815;43.410;11.852;2022-09-20T04:30:02;3.20;;;1.40;;
42146;SDS011;27815;43.410;11.852;2022-09-20T04:34:15;1.38;;;0.93;;
42146;SDS011;27815;43.410;11.852;2022-09-20T05:06:24;3.95;;;1.02;;
42146;SDS011;27815;43.410;11.852;2022-09-20T05:24:45;2.83;;;1.17;;
42146;SDS011;27815;43.410;11.852;2022-09-20T05:29:09;4.78;;;1.40;;
42146;SDS011;27815;43.410;11.852;2022-09-20T05:42:38;2.92;;;1.17;;
42146;SDS011;27815;43.410;11.852;2022-09-20T06:00:15;2.42;;;1.10;;
42146;SDS011;27815;43.410;11.852;2022-09-20T06:13:07;3.35;;;1.17;;
42146;SDS011;27815;43.410;11.852;2022-09-20T06:18:23;3.38;;;1.10;;
42146;SDS011;27815;43.410;11.852;2022-09-20T06:22:33;1.50;;;1.00;;
42146;SDS011;27815;43.410;11.852;2022-09-20T06:26:51;2.75;;;1.20;;
42146;SDS011;27815;43.410;11.852;2022-09-20T06:31:00;2.95;;;1.45;;
42146;SDS011;27815;43.410;11.852;2022-09-20T06:35:23;3.42;;;1.40;;
42146;SDS011;27815;43.410;11.852;2022-09-20T06:45:04;4.60;;;1.30;;
42146;SDS011;27815;43.410;11.852;2022-09-20T06:49:21;2.80;;;1.63;;
42146;SDS011;27815;43.410;11.852;2022-09-20T06:53:39;3.28;;;1.70;;
42146;SDS011;27815;43.410;11.852;2022-09-20T06:57:59;2.97;;;1.48;;
42146;SDS011;27815;43.410;11.852;2022-09-20T07:02:18;3.92;;;1.73;;
42146;SDS011;27815;43.410;11.852;2022-09-20T07:06:25;4.28;;;2.17;;
42146;SDS011;27815;43.410;11.852;2022-09-20T07:10:39;3.03;;;1.77;;
42146;SDS011;27815;43.410;11.852;2022-09-20T07:14:58;2.67;;;1.92;;
42146;SDS011;27815;43.410;11.852;2022-09-20T07:19:16;2.83;;;1.60;;
42146;SDS011;27815;43.410;11.852;2022-09-20T07:23:33;4.10;;;1.95;;
42146;SDS011;27815;43.410;11.852;2022-09-20T07:27:37;3.13;;;2.20;;
42146;SDS011;27815;43.410;11.852;2022-09-20T07:31:41;3.95;;;1.92;;
42146;SDS011;27815;43.410;11.852;2022-09-20T07:35:44;4.93;;;2.00;;
42146;SDS011;27815;43.410;11.852;2022-09-20T07:39:49;2.85;;;1.73;;
42146;SDS011;27815;43.410;11.852;2022-09-20T07:43:52;4.68;;;1.75;;
42146;SDS011;27815;43.410;11.852;2022-09-20T07:48:10;2.72;;;1.55;;
42146;SDS011;27815;43.410;11.852;2022-09-20T07:52:28;2.97;;;1.73;;
42146;SDS011;27815;43.410;11.852;2022-09-20T07:56:45;2.70;;;1.42;;
42146;SDS011;27815;43.410;11.852;2022-09-20T08:01:04;3.13;;;1.30;;
42146;SDS011;27815;43.410;11.852;2022-09-20T08:05:24;3.55;;;1.50;;
42146;SDS011;27815;43.410;11.852;2022-09-20T08:09:42;4.32;;;1.40;;
42146;SDS011;27815;43.410;11.852;2022-09-20T08:14:00;4.07;;;1.38;;
42146;SDS011;27815;43.410;11.852;2022-09-20T08:18:19;3.33;;;1.40;;
42146;SDS011;27815;43.410;11.852;2022-09-20T08:22:38;2.80;;;1.40;;
42146;SDS011;27815;43.410;11.852;2022-09-20T08:26:57;3.83;;;1.50;;
42146;SDS011;27815;43.410;11.852;2022-09-20T08:31:21;2.75;;;1.33;;
42146;SDS011;27815;43.410;11.852;2022-09-20T08:35:47;2.80;;;1.42;;
42146;SDS011;27815;43.410;11.852;2022-09-20T08:40:04;4.00;;;1.30;;
42146;SDS011;27815;43.410;11.852;2022-09-20T08:44:24;1.77;;;1.20;;
42146;SDS011;27815;43.410;11.852;2022-09-20T08:48:45;3.08;;;1.23;;
42146;SDS011;27815;43.410;11.852;2022-09-20T08:53:02;5.32;;;1.20;;
42146;SDS011;27815;43.410;11.852;2022-09-20T08:57:21;2.03;;;1.00;;
42146;SDS011;27815;43.410;11.852;2022-09-20T09:01:40;2.47;;;1.10;;
42146;SDS011;27815;43.410;11.852;2022-09-20T09:05:57;3.13;;;1.30;;
42146;SDS011;27815;43.410;11.852;2022-09-20T09:10:14;2.83;;;1.05;;
42146;SDS011;27815;43.410;11.852;2022-09-20T09:14:33;2.78;;;1.00;;
42146;SDS011;27815;43.410;11.852;2022-09-20T09:19:27;2.63;;;1.55;;
42146;SDS011;27815;43.410;11.852;2022-09-20T09:24:06;2.20;;;0.90;;
42146;SDS011;27815;43.410;11.852;2022-09-20T09:28:30;2.85;;;1.10;;
42146;SDS011;27815;43.410;11.852;2022-09-20T09:38:00;2.20;;;1.02;;
42146;SDS011;27815;43.410;11.852;2022-09-20T09:42:20;3.63;;;1.10;;
42146;SDS011;27815;43.410;11.852;2022-09-20T09:46:41;1.33;;;0.70;;
42146;SDS011;27815;43.410;11.852;2022-09-20T09:51:07;3.35;;;1.00;;
42146;SDS011;27815;43.410;11.852;2022-09-20T09:55:27;4.53;;;0.88;;
42146;SDS011;27815;43.410;11.852;2022-09-20T10:18:53;3.67;;;0.98;;
42146;SDS011;27815;43.410;11.852;2022-09-20T10:51:39;1.98;;;0.90;;
42146;SDS011;27815;43.410;11.852;2022-09-20T11:01:15;3.13;;;0.90;;
42146;SDS011;27815;43.410;11.852;2022-09-20T11:21:18;2.05;;;0.77;;
42146;SDS011;27815;43.410;11.852;2022-09-20T11:25:24;1.98;;;1.10;;
42146;SDS011;27815;43.410;11.852;2022-09-20T11:34:33;1.88;;;0.80;;
42146;SDS011;27815;43.410;11.852;2022-09-20T11:39:29;2.20;;;1.00;;
42146;SDS011;27815;43.410;11.852;2022-09-20T11:44:05;1.08;;;0.70;;
42146;SDS011;27815;43.410;11.852;2022-09-20T11:48:32;1.45;;;0.70;;
42146;SDS011;27815;43.410;11.852;2022-09-20T11:58:04;1.08;;;0.90;;
42146;SDS011;27815;43.410;11.852;2022-09-20T12:02:34;1.95;;;0.80;;
42146;SDS011;27815;43.410;11.852;2022-09-20T12:06:57;1.23;;;0.70;;
42146;SDS011;27815;43.410;11.852;2022-09-20T12:11:15;1.27;;;0.70;;
42146;SDS011;27815;43.410;11.852;2022-09-20T12:15:41;2.20;;;0.70;;
42146;SDS011;27815;43.410;11.852;2022-09-20T12:19:58;2.58;;;0.93;;
42146;SDS011;27815;43.410;11.852;2022-09-20T12:24:16;1.67;;;0.80;;
42146;SDS011;27815;43.410;11.852;2022-09-20T12:28:38;2.45;;;0.90;;
42146;SDS011;27815;43.410;11.852;2022-09-20T12:32:52;2.05;;;0.80;;
42146;SDS011;27815;43.410;11.852;2022-09-20T12:45:17;1.83;;;0.75;;
42146;SDS011;27815;43.410;11.852;2022-09-20T12:49:34;3.03;;;0.90;;
42146;SDS011;27815;43.410;11.852;2022-09-20T12:53:57;1.42;;;0.75;;
42146;SDS011;27815;43.410;11.852;2022-09-20T13:11:51;1.42;;;0.63;;
42146;SDS011;27815;43.410;11.852;2022-09-20T13:16:32;2.38;;;0.60;;
42146;SDS011;27815;43.410;11.852;2022-09-20T13:20:55;1.45;;;0.70;;
42146;SDS011;27815;43.410;11.852;2022-09-20T13:25:13;6.25;;;0.80;;
42146;SDS011;27815;43.410;11.852;2022-09-20T13:30:22;2.28;;;0.70;;
42146;SDS011;27815;43.410;11.852;2022-09-20T13:34:42;1.80;;;0.70;;
42146;SDS011;27815;43.410;11.852;2022-09-20T13:39:05;1.55;;;0.75;;
42146;SDS011;27815;43.410;11.852;2022-09-20T13:43:43;1.73;;;0.73;;
42146;SDS011;27815;43.410;11.852;2022-09-20T13:47:59;1.08;;;0.70;;
42146;SDS011;27815;43.410;11.852;2022-09-20T13:52:28;2.78;;;0.70;;
42146;SDS011;27815;43.410;11.852;2022-09-20T13:57:01;1.88;;;0.80;;
42146;SDS011;27815;43.410;11.852;2022-09-20T14:01:31;2.75;;;0.60;;
42146;SDS011;27815;43.410;11.852;2022-09-20T14:06:22;1.20;;;0.60;;
42146;SDS011;27815;43.410;11.852;2022-09-20T14:10:45;2.67;;;0.85;;
42146;SDS011;27815;43.410;11.852;2022-09-20T14:15:13;2.30;;;0.70;;
42146;SDS011;27815;43.410;11.852;2022-09-20T14:19:34;1.20;;;0.60;;
42146;SDS011;27815;43.410;11.852;2022-09-20T14:28:24;1.67;;;0.77;;
42146;SDS011;27815;43.410;11.852;2022-09-20T14:32:51;1.90;;;0.82;;
42146;SDS011;27815;43.410;11.852;2022-09-20T14:41:59;1.70;;;0.80;;
42146;SDS011;27815;43.410;11.852;2022-09-20T14:46:18;1.50;;;0.70;;
42146;SDS011;27815;43.410;11.852;2022-09-20T14:50:32;2.92;;;0.80;;
42146;SDS011;27815;43.410;11.852;2022-09-20T14:59:37;1.63;;;0.80;;
42146;SDS011;27815;43.410;11.852;2022-09-20T15:04:19;2.45;;;0.95;;
42146;SDS011;27815;43.410;11.852;2022-09-20T15:08:54;1.60;;;0.70;;
42146;SDS011;27815;43.410;11.852;2022-09-20T15:13:12;3.25;;;0.80;;
42146;SDS011;27815;43.410;11.852;2022-09-20T15:17:31;1.25;;;0.65;;
42146;SDS011;27815;43.410;11.852;2022-09-20T15:21:48;2.50;;;0.80;;
42146;SDS011;27815;43.410;11.852;2022-09-20T15:26:06;1.65;;;0.80;;
42146;SDS011;27815;43.410;11.852;2022-09-20T15:30:26;2.15;;;0.80;;
42146;SDS011;27815;43.410;11.852;2022-09-20T15:34:44;3.83;;;0.90;;
42146;SDS011;27815;43.410;11.852;2022-09-20T15:38:52;2.30;;;0.85;;
42146;SDS011;27815;43.410;11.852;2022-09-20T15:42:57;1.70;;;1.00;;
42146;SDS011;27815;43.410;11.852;2022-09-20T15:47:01;2.83;;;0.88;;
42146;SDS011;27815;43.410;11.852;2022-09-20T15:51:06;2.72;;;0.85;;
42146;SDS011;27815;43.410;11.852;2022-09-20T15:55:12;2.53;;;0.80;;
42146;SDS011;27815;43.410;11.852;2022-09-20T15:59:15;1.33;;;0.80;;
42146;SDS011;27815;43.410;11.852;2022-09-20T16:03:18;1.50;;;0.77;;
42146;SDS011;27815;43.410;11.852;2022-09-20T16:07:23;3.95;;;0.70;;
42146;SDS011;27815;43.410;11.852;2022-09-20T16:11:29;1.10;;;0.70;;
42146;SDS011;27815;43.410;11.852;2022-09-20T16:15:32;3.65;;;1.20;;
42146;SDS011;27815;43.410;11.852;2022-09-20T16:19:37;2.23;;;0.90;;
42146;SDS011;27815;43.410;11.852;2022-09-20T16:23:49;3.13;;;1.52;;
42146;SDS011;27815;43.410;11.852;2022-09-20T16:27:56;2.20;;;1.50;;
42146;SDS011;27815;43.410;11.852;2022-09-20T16:32:00;1.42;;;1.20;;
42146;SDS011;27815;43.410;11.852;2022-09-20T16:36:06;4.43;;;1.20;;
42146;SDS011;27815;43.410;11.852;2022-09-20T16:40:23;2.08;;;1.00;;
42146;SDS011;27815;43.410;11.852;2022-09-20T16:44:30;1.73;;;0.90;;
42146;SDS011;27815;43.410;11.852;2022-09-20T16:48:48;1.38;;;0.80;;
42146;SDS011;27815;43.410;11.852;2022-09-20T16:52:55;1.60;;;0.70;;
42146;SDS011;27815;43.410;11.852;2022-09-20T16:57:02;1.77;;;0.75;;
42146;SDS011;27815;43.410;11.852;2022-09-20T17:01:12;3.15;;;0.85;;
42146;SDS011;27815;43.410;11.852;2022-09-20T17:05:17;1.80;;;0.70;;
42146;SDS011;27815;43.410;11.852;2022-09-20T17:09:22;2.97;;;0.90;;
42146;SDS011;27815;43.410;11.852;2022-09-20T17:13:31;3.05;;;0.90;;
42146;SDS011;27815;43.410;11.852;2022-09-20T17:17:36;2.28;;;0.70;;
42146;SDS011;27815;43.410;11.852;2022-09-20T17:21:45;2.30;;;0.70;;
42146;SDS011;27815;43.410;11.852;2022-09-20T17:26:05;2.30;;;0.70;;
42146;SDS011;27815;43.410;11.852;2022-09-20T17:30:13;4.93;;;1.02;;
42146;SDS011;27815;43.410;11.852;2022-09-20T17:34:17;4.55;;;1.05;;
42146;SDS011;27815;43.410;11.852;2022-09-20T17:38:23;2.95;;;0.98;;
42146;SDS011;27815;43.410;11.852;2022-09-20T17:42:38;1.38;;;0.60;;
42146;SDS011;27815;43.410;11.852;2022-09-20T17:46:42;3.10;;;0.90;;
42146;SDS011;27815;43.410;11.852;2022-09-20T17:50:55;0.90;;;0.70;;
42146;SDS011;27815;43.410;11.852;2022-09-20T17:55:01;1.90;;;0.70;;
42146;SDS011;27815;43.410;11.852;2022-09-20T18:00:02;1.95;;;0.85;;
42146;SDS011;27815;43.410;11.852;2022-09-20T18:10:36;4.97;;;0.80;;
42146;SDS011;27815;43.410;11.852;2022-09-20T18:15:35;3.05;;;0.70;;
42146;SDS011;27815;43.410;11.852;2022-09-20T18:21:10;0.98;;;0.60;;
42146;SDS011;27815;43.410;11.852;2022-09-20T18:25:36;3.15;;;0.70;;
42146;SDS011;27815;43.410;11.852;2022-09-20T18:30:14;2.05;;;0.68;;
42146;SDS011;27815;43.410;11.852;2022-09-20T18:34:25;2.35;;;0.80;;
42146;SDS011;27815;43.410;11.852;2022-09-20T18:43:03;3.53;;;0.60;;
42146;SDS011;27815;43.410;11.852;2022-09-20T18:47:22;1.70;;;0.60;;
42146;SDS011;27815;43.410;11.852;2022-09-20T18:51:41;1.42;;;0.70;;
42146;SDS011;27815;43.410;11.852;2022-09-20T19:06:02;2.90;;;0.80;;
42146;SDS011;27815;43.410;11.852;2022-09-20T19:10:41;3.55;;;0.80;;
42146;SDS011;27815;43.410;11.852;2022-09-20T19:29:22;1.63;;;0.50;;
42146;SDS011;27815;43.410;11.852;2022-09-20T19:33:43;1.20;;;0.50;;
42146;SDS011;27815;43.410;11.852;2022-09-20T19:51:39;1.25;;;0.60;;
42146;SDS011;27815;43.410;11.852;2022-09-20T19:55:49;1.45;;;0.77;;
42146;SDS011;27815;43.410;11.852;2022-09-20T20:00:11;2.33;;;0.75;;
42146;SDS011;27815;43.410;11.852;2022-09-20T20:04:23;2.28;;;0.50;;
42146;SDS011;27815;43.410;11.852;2022-09-20T20:08:37;1.23;;;0.60;;
42146;SDS011;27815;43.410;11.852;2022-09-20T20:18:26;2.15;;;0.60;;
42146;SDS011;27815;43.410;11.852;2022-09-20T20:27:25;1.38;;;0.60;;
42146;SDS011;27815;43.410;11.852;2022-09-20T20:31:34;1.38;;;0.68;;
42146;SDS011;27815;43.410;11.852;2022-09-20T20:35:54;1.50;;;0.55;;
42146;SDS011;27815;43.410;11.852;2022-09-20T20:44:13;2.72;;;0.50;;
42146;SDS011;27815;43.410;11.852;2022-09-20T20:52:36;2.15;;;0.65;;
42146;SDS011;27815;43.410;11.852;2022-09-20T20:56:41;0.80;;;0.50;;
42146;SDS011;27815;43.410;11.852;2022-09-20T21:00:49;3.70;;;0.73;;
42146;SDS011;27815;43.410;11.852;2022-09-20T21:04:54;1.35;;;0.73;;
42146;SDS011;27815;43.410;11.852;2022-09-20T21:09:03;2.70;;;0.63;;
42146;SDS011;27815;43.410;11.852;2022-09-20T21:13:07;1.92;;;0.93;;
42146;SDS011;27815;43.410;11.852;2022-09-20T21:17:10;0.98;;;0.50;;
42146;SDS011;27815;43.410;11.852;2022-09-20T21:21:25;1.30;;;0.68;;
42146;SDS011;27815;43.410;11.852;2022-09-20T21:25:30;2.40;;;0.57;;
42146;SDS011;27815;43.410;11.852;2022-09-20T21:29:33;1.13;;;0.50;;
42146;SDS011;27815;43.410;11.852;2022-09-20T21:33:38;1.52;;;0.65;;
42146;SDS011;27815;43.410;11.852;2022-09-20T21:37:43;1.15;;;0.57;;
42146;SDS011;27815;43.410;11.852;2022-09-20T21:41:46;0.88;;;0.50;;
42146;SDS011;27815;43.410;11.852;2022-09-20T21:45:50;2.40;;;0.60;;
42146;SDS011;27815;43.410;11.852;2022-09-20T21:49:54;1.88;;;0.68;;
42146;SDS011;27815;43.410;11.852;2022-09-20T21:53:58;2.15;;;0.70;;
42146;SDS011;27815;43.410;11.852;2022-09-20T21:58:03;0.68;;;0.47;;
42146;SDS011;27815;43.410;11.852;2022-09-20T22:02:08;1.63;;;0.50;;
42146;SDS011;27815;43.410;11.852;2022-09-20T22:14:22;1.45;;;0.77;;
42146;SDS011;27815;43.410;11.852;2022-09-20T22:18:25;0.90;;;0.75;;
42146;SDS011;27815;43.410;11.852;2022-09-20T22:22:28;3.05;;;0.75;;
42146;SDS011;27815;43.410;11.852;2022-09-20T22:26:33;2.25;;;0.60;;
42146;SDS011;27815;43.410;11.852;2022-09-20T22:30:38;1.23;;;0.63;;
42146;SDS011;27815;43.410;11.852;2022-09-20T22:34:41;1.73;;;0.70;;
42146;SDS011;27815;43.410;11.852;2022-09-20T22:38:43;5.53;;;0.68;;
42146;SDS011;27815;43.410;11.852;2022-09-20T22:42:48;2.00;;;0.80;;
42146;SDS011;27815;43.410;11.852;2022-09-20T22:46:51;1.67;;;0.73;;
42146;SDS011;27815;43.410;11.852;2022-09-20T22:51:01;1.55;;;0.68;;
42146;SDS011;27815;43.410;11.852;2022-09-20T22:55:06;3.35;;;0.90;;
42146;SDS011;27815;43.410;11.852;2022-09-20T22:59:10;3.13;;;0.70;;
42146;SDS011;27815;43.410;11.852;2022-09-20T23:03:15;1.55;;;0.88;;
42146;SDS011;27815;43.410;11.852;2022-09-20T23:07:21;2.60;;;0.80;;
42146;SDS011;27815;43.410;11.852;2022-09-20T23:11:24;4.47;;;1.25;;
42146;SDS011;27815;43.410;11.852;2022-09-20T23:15:28;2.03;;;0.70;;
42146;SDS011;27815;43.410;11.852;2022-09-20T23:19:31;0.88;;;0.52;;
42146;SDS011;27815;43.410;11.852;2022-09-20T23:23:34;1.02;;;0.60;;
42146;SDS011;27815;43.410;11.852;2022-09-20T23:27:37;2.20;;;1.05;;
42146;SDS011;27815;43.410;11.852;2022-09-20T23:31:41;3.47;;;0.95;;
42146;SDS011;27815;43.410;11.852;2022-09-20T23:35:47;4.10;;;0.90;;
42146;SDS011;27815;43.410;11.852;2022-09-20T23:39:51;3.35;;;1.13;;
42146;SDS011;27815;43.410;11.852;2022-09-20T23:43:57;2.60;;;0.80;;
42146;SDS011;27815;43.410;11.852;2022-09-20T23:48:02;2.90;;;0.80;;
42146;SDS011;27815;43.410;11.852;2022-09-20T23:52:05;3.25;;;0.90;;
42146;SDS011;27815;43.410;11.852;2022-09-20T23:56:09;1.65;;;0.80;;
